Time;durP1;ratioP1;P1;durP2;ratioP2;P2;SDS_P1;SDS_P2;PMS_P1;PMS_P2;Temp;Humidity;BMP_temperature;BMP_pressure;BME280_temperature;BME280_humidity;BME280_pressure;Samples;Min_cycle;Max_cycle;Signal;HPM_P1;HPM_P2
2023/01/22 00:01:37;;;;;;;15.83;12.53;;;;;;;-1.13;100.00;98806.56;5053628;28;20459;-71
2023/01/22 00:04:04;;;;;;;17.53;14.27;;;;;;;-1.09;100.00;98803.53;5053836;28;20434;-71
2023/01/22 00:06:30;;;;;;;16.80;13.30;;;;;;;-1.10;100.00;98804.50;5052943;28;20929;-71
2023/01/22 00:09:02;;;;;;;17.33;12.93;;;;;;;-1.13;100.00;98796.94;5053590;28;20869;-71
2023/01/22 00:11:29;;;;;;;17.53;13.60;;;;;;;-1.09;100.00;98798.34;5053460;28;20550;-71
2023/01/22 00:13:55;;;;;;;16.97;12.97;;;;;;;-1.13;100.00;98790.91;5053453;28;20456;-71
2023/01/22 00:16:22;;;;;;;19.60;13.63;;;;;;;-1.22;100.00;98786.47;5053707;28;20437;-71
2023/01/22 00:18:48;;;;;;;17.10;13.13;;;;;;;-1.20;100.00;98787.97;5053246;28;20446;-71
2023/01/22 00:21:14;;;;;;;17.17;12.83;;;;;;;-1.19;100.00;98786.19;5053428;28;20462;-71
2023/01/22 00:23:41;;;;;;;17.33;12.23;;;;;;;-1.14;100.00;98779.63;5053328;28;20441;-71
2023/01/22 00:26:11;;;;;;;17.83;13.00;;;;;;;-1.03;100.00;98782.16;5052917;28;20932;-71
2023/01/22 00:28:40;;;;;;;17.57;12.40;;;;;;;-1.08;100.00;98783.50;5053409;28;20821;-71
2023/01/22 00:31:07;;;;;;;16.23;12.33;;;;;;;-1.05;100.00;98776.25;5052980;28;20941;-71
2023/01/22 00:33:34;;;;;;;17.37;12.73;;;;;;;-1.03;100.00;98773.50;5053506;28;20441;-71
2023/01/22 00:36:05;;;;;;;15.80;12.30;;;;;;;-1.01;100.00;98775.03;5053201;28;20478;-71
2023/01/22 00:38:31;;;;;;;15.50;12.23;;;;;;;-1.06;100.00;98776.38;5056954;28;20437;-71
2023/01/22 00:41:04;;;;;;;16.20;12.30;;;;;;;-1.02;100.00;98772.56;5056971;28;20446;-71
2023/01/22 00:43:32;;;;;;;16.37;12.57;;;;;;;-1.07;100.00;98772.91;5057132;28;20893;-71
2023/01/22 00:45:59;;;;;;;17.17;13.37;;;;;;;-1.09;100.00;98768.78;5057001;28;20953;-71
2023/01/22 00:48:25;;;;;;;20.27;13.67;;;;;;;-1.00;100.00;98771.47;5057354;28;20795;-71
2023/01/22 00:50:52;;;;;;;14.80;12.10;;;;;;;-1.03;100.00;98771.72;5057212;28;20465;-71
2023/01/22 00:53:18;;;;;;;15.60;12.30;;;;;;;-1.02;100.00;98765.56;5057214;28;20449;-71
2023/01/22 00:55:58;;;;;;;19.03;12.90;;;;;;;-1.05;100.00;98778.84;5057094;28;20485;-71
2023/01/22 00:58:26;;;;;;;16.77;12.20;;;;;;;-0.98;100.00;98779.16;5057173;28;20418;-71
2023/01/22 01:00:52;;;;;;;17.60;13.33;;;;;;;-1.03;100.00;98768.28;5056460;28;20445;-71
2023/01/22 01:03:30;;;;;;;15.73;12.07;;;;;;;-1.08;100.00;98766.06;5056981;28;20449;-71
2023/01/22 01:05:59;;;;;;;18.23;13.10;;;;;;;-1.00;100.00;98771.47;5056876;28;20428;-71
2023/01/22 01:08:27;;;;;;;14.13;12.03;;;;;;;-0.91;100.00;98775.06;5056875;28;20441;-71
2023/01/22 01:10:55;;;;;;;16.20;11.60;;;;;;;-0.97;100.00;98779.03;5056820;28;20450;-72
2023/01/22 01:13:22;;;;;;;15.93;12.37;;;;;;;-0.90;100.00;98774.94;5056618;28;20937;-71
2023/01/22 01:15:49;;;;;;;15.30;12.57;;;;;;;-0.90;100.00;98780.16;5057581;28;20531;-71
2023/01/22 01:18:16;;;;;;;16.70;12.27;;;;;;;-0.97;100.00;98779.03;5056672;28;20212;-72
2023/01/22 01:20:43;;;;;;;16.43;12.07;;;;;;;-0.89;100.00;98778.38;5056128;28;20960;-71
2023/01/22 01:23:09;;;;;;;16.17;12.57;;;;;;;-0.85;100.00;98774.56;5056135;28;20820;-71
2023/01/22 01:25:35;;;;;;;13.97;11.70;;;;;;;-0.74;100.00;98777.91;5056518;28;20433;-72
2023/01/22 01:28:04;;;;;;;16.43;12.47;;;;;;;-0.77;100.00;98770.34;5056600;28;20450;-71
2023/01/22 01:30:30;;;;;;;14.33;11.80;;;;;;;-0.85;100.00;98777.19;5056585;28;20445;-71
2023/01/22 01:32:57;;;;;;;16.90;12.83;;;;;;;-0.92;100.00;98774.25;5056425;28;20488;-71
2023/01/22 01:35:24;;;;;;;14.33;11.70;;;;;;;-0.86;100.00;98772.91;5056013;28;20984;-71
2023/01/22 01:37:52;;;;;;;16.07;12.63;;;;;;;-0.77;100.00;98770.34;5056334;28;20441;-71
2023/01/22 01:40:18;;;;;;;15.27;12.57;;;;;;;-0.81;100.00;98778.56;5056361;28;20445;-71
2023/01/22 01:42:46;;;;;;;16.37;12.13;;;;;;;-0.82;100.00;98775.13;5056369;28;20466;-72
2023/01/22 01:45:19;;;;;;;16.37;12.33;;;;;;;-0.81;100.00;98770.75;5056242;28;20800;-71
2023/01/22 01:47:48;;;;;;;13.97;11.37;;;;;;;-0.80;100.00;98764.56;5056052;28;20196;-71
2023/01/22 01:50:17;;;;;;;13.73;11.20;;;;;;;-0.82;100.00;98759.47;5055302;28;20207;-71
2023/01/22 01:52:44;;;;;;;13.80;11.20;;;;;;;-0.77;100.00;98764.31;5056045;28;20232;-71
2023/01/22 01:55:12;;;;;;;16.63;13.30;;;;;;;-0.77;100.00;98767.72;5055976;28;20240;-71
2023/01/22 01:57:41;;;;;;;15.90;12.07;;;;;;;-0.71;100.00;98766.38;5054549;28;20212;-71
2023/01/22 02:00:11;;;;;;;15.10;11.90;;;;;;;-0.74;100.00;98766.63;5055976;28;20216;-71
2023/01/22 02:02:37;;;;;;;15.77;12.30;;;;;;;-0.80;100.00;98765.38;5054376;28;20976;-72
2023/01/22 02:05:06;;;;;;;13.67;11.13;;;;;;;-0.80;100.00;98765.38;5055825;28;20442;-71
2023/01/22 02:07:32;;;;;;;14.07;11.33;;;;;;;-0.77;100.00;98770.34;5055814;28;20439;-71
2023/01/22 02:09:59;;;;;;;15.27;12.40;;;;;;;-0.77;100.00;98766.91;5055865;28;20792;-71
2023/01/22 02:12:26;;;;;;;13.47;11.17;;;;;;;-0.73;100.00;98766.50;5055345;28;20738;-71
2023/01/22 02:14:53;;;;;;;14.37;11.67;;;;;;;-0.71;100.00;98771.59;5054182;28;21036;-71
2023/01/22 02:17:21;;;;;;;14.87;11.53;;;;;;;-0.74;100.00;98766.63;5054521;28;20438;-71
2023/01/22 02:19:48;;;;;;;14.03;11.00;;;;;;;-0.69;100.00;98770.50;5055730;28;20240;-71
2023/01/22 02:22:21;;;;;;;14.50;11.53;;;;;;;-0.72;100.00;98770.75;5055782;28;20222;-71
2023/01/22 02:24:48;;;;;;;14.37;11.30;;;;;;;-0.66;100.00;98764.19;5054420;28;20200;-71
2023/01/22 02:27:15;;;;;;;13.93;11.73;;;;;;;-0.77;100.00;98764.31;5055340;28;20213;-71
2023/01/22 02:29:41;;;;;;;12.53;10.87;;;;;;;-0.67;100.00;98758.13;5055167;28;20216;-71
2023/01/22 02:32:08;;;;;;;13.23;10.87;;;;;;;-0.73;100.00;98761.28;5055246;28;20221;-71
2023/01/22 02:34:34;;;;;;;14.60;11.73;;;;;;;-0.73;100.00;98763.06;5055000;28;20209;-71
2023/01/22 02:37:01;;;;;;;13.17;11.33;;;;;;;-0.71;100.00;98756.75;5055326;28;20205;-71
2023/01/22 02:39:27;;;;;;;14.17;11.47;;;;;;;-0.72;100.00;98756.91;5055296;28;20205;-71
2023/01/22 02:41:54;;;;;;;14.60;12.07;;;;;;;-0.66;100.00;98759.81;5055193;28;20225;-71
2023/01/22 02:44:20;;;;;;;13.73;11.40;;;;;;;-0.70;100.00;98762.81;5055216;28;20209;-71
2023/01/22 02:46:47;;;;;;;14.77;11.63;;;;;;;-0.69;100.00;98760.06;5055394;28;20442;-71
2023/01/22 02:49:13;;;;;;;13.70;10.97;;;;;;;-0.76;100.00;98769.38;5055064;28;20208;-71
2023/01/22 02:51:39;;;;;;;13.97;11.87;;;;;;;-0.77;100.00;98762.50;5054987;28;20221;-71
2023/01/22 02:54:06;;;;;;;13.83;12.10;;;;;;;-0.70;100.00;98753.19;5054975;28;20212;-71
2023/01/22 02:56:33;;;;;;;14.33;12.27;;;;;;;-0.60;100.00;98761.03;5054862;28;20229;-71
2023/01/22 02:59:01;;;;;;;15.00;12.13;;;;;;;-0.60;100.00;98767.13;5053381;28;20205;-71
2023/01/22 03:01:28;;;;;;;15.27;11.67;;;;;;;-0.62;100.00;98762.97;5054644;28;20225;-70
2023/01/22 03:04:00;;;;;;;14.43;11.97;;;;;;;-0.63;100.00;98759.53;5054741;28;20528;-71
2023/01/22 03:06:28;;;;;;;13.27;11.03;;;;;;;-0.64;100.00;98757.88;5054741;28;20190;-71
2023/01/22 03:08:57;;;;;;;13.77;11.17;;;;;;;-0.62;100.00;98761.19;5055461;28;20287;-71
2023/01/22 03:11:26;;;;;;;15.97;11.57;;;;;;;-0.58;100.00;98751.31;5054468;28;20226;-71
2023/01/22 03:22:05;;;;;;;13.83;11.77;;;;;;;-0.59;100.00;98747.03;5054428;28;20220;-71
2023/01/22 03:24:31;;;;;;;13.60;11.57;;;;;;;-0.61;100.00;98744.56;5054391;28;20205;-71
2023/01/22 03:26:57;;;;;;;15.57;12.13;;;;;;;-0.63;100.00;98743.06;5054169;28;20205;-71
2023/01/22 03:29:24;;;;;;;12.83;10.97;;;;;;;-0.56;100.00;98745.00;5054030;28;20205;-71
2023/01/22 03:31:50;;;;;;;14.77;12.20;;;;;;;-0.66;100.00;98751.97;5054381;28;20240;-71
2023/01/22 03:34:18;;;;;;;14.50;11.80;;;;;;;-0.66;100.00;98751.16;5053866;28;20230;-71
2023/01/22 03:36:45;;;;;;;15.77;12.23;;;;;;;-0.64;100.00;98742.22;5054070;28;20225;-71
2023/01/22 03:39:12;;;;;;;14.00;12.13;;;;;;;-0.65;100.00;98755.41;5054048;28;20661;-71
2023/01/22 03:41:38;;;;;;;13.97;12.20;;;;;;;-0.67;100.00;98752.91;5053988;28;20457;-71
2023/01/22 03:44:08;;;;;;;13.57;11.23;;;;;;;-0.58;100.00;98751.31;5054592;28;20206;-72
2023/01/22 03:46:34;;;;;;;15.20;11.77;;;;;;;-0.67;100.00;98752.91;5053929;28;20201;-71
2023/01/22 03:49:01;;;;;;;15.87;12.27;;;;;;;-0.59;100.00;98749.63;5054229;28;20216;-71
2023/01/22 03:51:27;;;;;;;14.80;12.03;;;;;;;-0.63;100.00;98748.28;5053545;28;20469;-72
2023/01/22 03:53:54;;;;;;;14.47;12.17;;;;;;;-0.62;100.00;98750.72;5053957;28;20441;-71
2023/01/22 03:56:22;;;;;;;13.37;11.73;;;;;;;-0.48;100.00;98757.38;5053936;28;20221;-71
2023/01/22 03:58:50;;;;;;;14.50;12.37;;;;;;;-0.54;100.00;98753.50;5054243;28;20555;-71
2023/01/22 04:01:19;;;;;;;15.80;12.37;;;;;;;-0.57;100.00;98751.19;5053593;28;20233;-71
2023/01/22 04:03:46;;;;;;;14.20;11.73;;;;;;;-0.60;100.00;98748.84;5053497;28;20442;-71
2023/01/22 04:06:13;;;;;;;15.33;12.00;;;;;;;-0.59;100.00;98752.25;5054310;28;20784;-71
2023/01/22 04:08:41;;;;;;;16.10;12.60;;;;;;;-0.55;100.00;98745.81;5054254;28;20445;-71
2023/01/22 04:11:08;;;;;;;15.87;12.87;;;;;;;-0.57;100.00;98751.19;5053133;28;20434;-71
2023/01/22 04:13:36;;;;;;;14.33;12.13;;;;;;;-0.55;100.00;98749.25;5053101;28;20219;-72
2023/01/22 04:16:04;;;;;;;15.37;12.40;;;;;;;-0.50;100.00;98746.22;5054214;28;20478;-72
2023/01/22 04:18:30;;;;;;;16.97;12.77;;;;;;;-0.55;100.00;98749.25;5053544;28;20209;-72
2023/01/22 04:20:56;;;;;;;15.83;12.60;;;;;;;-0.57;100.00;98740.75;5053323;28;20212;-72
2023/01/22 04:23:24;;;;;;;15.77;12.70;;;;;;;-0.60;100.00;98748.84;5053626;28;20209;-72
2023/01/22 04:25:51;;;;;;;16.03;12.33;;;;;;;-0.61;100.00;98749.81;5053859;28;20201;-72
2023/01/22 04:28:18;;;;;;;15.10;12.60;;;;;;;-0.55;100.00;98757.09;5053379;28;20205;-72
2023/01/22 04:30:46;;;;;;;15.87;12.73;;;;;;;-0.52;100.00;98756.84;5053354;28;20208;-71
2023/01/22 04:33:13;;;;;;;16.60;13.37;;;;;;;-0.54;100.00;98747.50;5053274;28;20221;-71
2023/01/22 04:35:41;;;;;;;15.47;13.17;;;;;;;-0.56;100.00;98754.59;5053238;28;20225;-71
2023/01/22 04:38:08;;;;;;;16.27;13.50;;;;;;;-0.59;100.00;98747.88;5052906;28;20209;-72
2023/01/22 04:40:34;;;;;;;17.77;12.90;;;;;;;-0.52;100.00;98745.56;5053342;28;20211;-72
2023/01/22 04:43:05;;;;;;;16.77;12.70;;;;;;;-0.52;100.00;98751.63;5053125;28;20225;-72
2023/01/22 04:45:32;;;;;;;14.80;12.33;;;;;;;-0.47;100.00;98751.19;5053547;28;20186;-72
2023/01/22 04:47:58;;;;;;;17.17;13.27;;;;;;;-0.46;100.00;98758.91;5053109;28;20205;-72
2023/01/22 04:50:31;;;;;;;17.63;13.10;;;;;;;-0.18;100.00;98767.78;5052934;28;20676;-71
2023/01/22 04:52:59;;;;;;;14.83;12.87;;;;;;;-0.41;100.00;98761.94;5053014;28;20225;-71
2023/01/22 04:55:26;;;;;;;15.70;12.73;;;;;;;-0.42;100.00;98760.28;5052792;28;20304;-72
2023/01/22 04:57:57;;;;;;;16.60;13.20;;;;;;;-0.53;100.00;98760.38;5053041;28;20216;-72
2023/01/22 05:00:25;;;;;;;15.73;12.50;;;;;;;-0.50;100.00;98767.13;5052959;28;20205;-71
2023/01/22 05:02:56;;;;;;;14.50;12.80;;;;;;;-0.56;100.00;98773.72;5052913;28;20225;-72
2023/01/22 05:05:23;;;;;;;17.03;13.57;;;;;;;-0.60;100.00;98769.72;5052944;28;20433;-72
2023/01/22 05:07:49;;;;;;;16.37;13.50;;;;;;;-0.50;100.00;98769.75;5052550;28;20790;-71
2023/01/22 05:10:16;;;;;;;16.23;13.43;;;;;;;-0.43;100.00;98778.72;5052938;28;20217;-71
2023/01/22 05:12:42;;;;;;;16.70;13.33;;;;;;;-0.43;100.00;98776.94;5052424;28;20747;-71
2023/01/22 05:15:09;;;;;;;16.90;14.13;;;;;;;-0.50;100.00;98790.63;5052946;28;20209;-72
2023/01/22 05:17:35;;;;;;;17.43;13.83;;;;;;;-0.52;100.00;98785.56;5053353;28;20587;-73
2023/01/22 05:20:02;;;;;;;16.03;13.07;;;;;;;-0.39;100.00;98785.31;5052780;28;20209;-72
2023/01/22 05:22:28;;;;;;;16.83;13.60;;;;;;;-0.50;100.00;98788.84;5052767;28;20222;-72
2023/01/22 05:24:55;;;;;;;16.93;13.53;;;;;;;-0.38;100.00;98800.03;5055301;28;20205;-73
2023/01/22 05:27:21;;;;;;;15.73;13.17;;;;;;;-0.37;100.00;98789.44;5056654;28;20429;-72
2023/01/22 05:29:47;;;;;;;15.83;13.53;;;;;;;-0.44;100.00;98790.94;5056627;28;20205;-72
2023/01/22 05:32:14;;;;;;;19.27;14.17;;;;;;;-0.45;100.00;98789.28;5056762;28;20225;-72
2023/01/22 05:34:41;;;;;;;15.40;13.30;;;;;;;-0.42;100.00;98801.25;5056484;28;20209;-72
2023/01/22 05:37:07;;;;;;;16.43;14.03;;;;;;;-0.41;100.00;98788.06;5056324;28;20232;-72
2023/01/22 05:39:34;;;;;;;18.03;13.63;;;;;;;-0.42;100.00;98793.41;5056165;28;20205;-72
2023/01/22 05:42:00;;;;;;;18.50;14.03;;;;;;;-0.44;100.00;98801.38;5056029;28;20221;-72
2023/01/22 05:44:26;;;;;;;16.97;14.37;;;;;;;-0.32;100.00;98795.09;5056590;28;20201;-72
2023/01/22 05:46:53;;;;;;;16.77;13.90;;;;;;;-0.27;100.00;98798.13;5056093;28;20198;-72
2023/01/22 05:49:19;;;;;;;19.60;14.27;;;;;;;-0.37;100.00;98802.50;5055987;28;20212;-72
2023/01/22 05:51:45;;;;;;;18.60;14.17;;;;;;;-0.42;100.00;98807.31;5055934;28;20232;-72
2023/01/22 05:54:12;;;;;;;18.80;14.40;;;;;;;-0.39;100.00;98804.44;5055976;28;20207;-72
2023/01/22 05:56:38;;;;;;;17.30;14.27;;;;;;;-0.27;100.00;98798.13;5055899;28;20225;-71
2023/01/22 05:59:04;;;;;;;18.03;14.97;;;;;;;-0.37;100.00;98804.28;5056552;28;20206;-71
2023/01/22 06:01:31;;;;;;;16.80;13.50;;;;;;;-0.27;100.00;98805.97;5055844;28;20225;-71
2023/01/22 06:03:57;;;;;;;18.30;14.57;;;;;;;-0.36;100.00;98812.00;5055924;28;20201;-72
2023/01/22 06:06:24;;;;;;;17.83;14.43;;;;;;;-0.43;100.00;98805.66;5055833;28;20197;-72
2023/01/22 06:08:51;;;;;;;19.57;15.00;;;;;;;-0.37;100.00;98815.56;5055760;28;20205;-72
2023/01/22 06:11:18;;;;;;;20.30;15.43;;;;;;;-0.39;100.00;98817.50;5055294;28;20229;-72
2023/01/22 06:13:45;;;;;;;18.17;14.47;;;;;;;-0.43;100.00;98813.50;5055501;28;20217;-72
2023/01/22 06:16:11;;;;;;;19.83;14.67;;;;;;;-0.33;100.00;98821.34;5055317;28;20233;-72
2023/01/22 06:18:38;;;;;;;17.80;14.13;;;;;;;-0.22;100.00;98814.22;5055589;28;20208;-72
2023/01/22 06:21:08;;;;;;;16.50;13.30;;;;;;;-0.23;100.00;98825.66;5055167;28;20661;-71
2023/01/22 06:23:35;;;;;;;18.07;14.00;;;;;;;-0.30;100.00;98824.50;5055204;28;20683;-72
2023/01/22 06:26:03;;;;;;;18.60;15.23;;;;;;;-0.29;100.00;98836.66;5055506;28;20224;-72
2023/01/22 06:28:29;;;;;;;19.53;15.10;;;;;;;-0.24;100.00;98828.41;5055503;28;20201;-72
2023/01/22 06:31:02;;;;;;;18.67;15.03;;;;;;;-0.32;100.00;98829.06;5055344;28;20212;-72
2023/01/22 06:33:29;;;;;;;19.67;15.43;;;;;;;-0.37;100.00;98835.63;5055337;28;20225;-72
2023/01/22 06:35:55;;;;;;;20.27;15.50;;;;;;;-0.36;100.00;98832.09;5054426;28;20205;-72
2023/01/22 06:38:22;;;;;;;20.57;16.43;;;;;;;-0.41;100.00;98829.00;5055128;28;20216;-72
2023/01/22 06:40:53;;;;;;;22.13;16.43;;;;;;;-0.30;100.00;98839.38;5055192;28;20205;-72
2023/01/22 06:43:20;;;;;;;19.77;15.43;;;;;;;-0.40;100.00;98841.13;5055087;28;20569;-72
2023/01/22 06:45:46;;;;;;;18.63;15.37;;;;;;;-0.35;100.00;98839.78;5055164;28;20205;-72
2023/01/22 06:48:13;;;;;;;22.37;16.50;;;;;;;-0.42;100.00;98838.66;5055069;28;20582;-72
2023/01/22 06:50:39;;;;;;;20.97;16.00;;;;;;;-0.31;100.00;98837.75;5054986;28;20209;-72
2023/01/22 06:53:06;;;;;;;20.53;15.03;;;;;;;-0.29;100.00;98848.88;5055165;28;20239;-72
2023/01/22 06:55:32;;;;;;;22.90;17.27;;;;;;;-0.32;100.00;98851.75;5054971;28;20220;-73
2023/01/22 06:57:59;;;;;;;22.73;17.50;;;;;;;-0.37;100.00;98844.31;5055155;28;20589;-72
2023/01/22 07:00:25;;;;;;;21.10;16.13;;;;;;;-0.32;100.00;98847.34;5054851;28;20205;-73
2023/01/22 07:02:53;;;;;;;21.03;16.00;;;;;;;-0.31;100.00;98849.00;5054772;28;20591;-73
2023/01/22 07:05:19;;;;;;;19.80;16.03;;;;;;;-0.30;100.00;98860.28;5054698;28;20202;-73
2023/01/22 07:07:52;;;;;;;20.60;15.70;;;;;;;-0.31;100.00;98850.81;5054719;28;20255;-73
2023/01/22 07:10:18;;;;;;;22.37;16.00;;;;;;;-0.25;100.00;98852.88;5054365;28;20651;-73
2023/01/22 07:12:44;;;;;;;21.83;15.93;;;;;;;-0.21;100.00;98854.28;5054699;28;20229;-73
2023/01/22 07:15:11;;;;;;;22.40;15.33;;;;;;;-0.35;100.00;98865.88;5054527;28;20228;-73
2023/01/22 07:17:37;;;;;;;22.90;16.27;;;;;;;-0.27;100.00;98867.88;5054289;28;20229;-73
2023/01/22 07:20:04;;;;;;;23.60;16.67;;;;;;;-0.23;100.00;98864.84;5054071;28;20301;-73
2023/01/22 07:22:31;;;;;;;22.87;16.90;;;;;;;-0.27;100.00;98871.28;5054219;28;20229;-74
2023/01/22 07:24:58;;;;;;;22.00;16.77;;;;;;;-0.19;100.00;98868.00;5054318;28;20208;-74
2023/01/22 07:27:24;;;;;;;22.03;16.97;;;;;;;-0.28;100.00;98877.47;5054102;28;20212;-74
2023/01/22 07:29:50;;;;;;;23.33;17.77;;;;;;;-0.26;100.00;98880.78;5054364;28;20576;-74
2023/01/22 07:32:17;;;;;;;23.73;17.27;;;;;;;-0.22;100.00;98878.75;5054191;28;20229;-74
2023/01/22 07:34:43;;;;;;;21.90;16.90;;;;;;;-0.25;100.00;98873.78;5054250;28;20215;-74
2023/01/22 07:37:09;;;;;;;22.20;16.87;;;;;;;-0.19;100.00;98875.84;5054490;28;20227;-74
2023/01/22 07:39:36;;;;;;;21.47;16.50;;;;;;;-0.14;100.00;98874.50;5054195;28;20209;-74
2023/01/22 07:42:02;;;;;;;20.73;16.27;;;;;;;-0.11;100.00;98882.09;5053915;28;20225;-73
2023/01/22 07:44:28;;;;;;;22.90;17.17;;;;;;;-0.15;100.00;98872.88;5053955;28;20206;-73
2023/01/22 07:46:55;;;;;;;23.63;16.77;;;;;;;-0.15;100.00;98885.09;5053465;28;20202;-73
2023/01/22 07:49:21;;;;;;;23.27;17.10;;;;;;;-0.15;100.00;98880.69;5053646;28;20205;-73
2023/01/22 07:51:47;;;;;;;23.53;17.37;;;;;;;-0.27;100.00;98878.31;5053858;28;20231;-73
2023/01/22 07:54:14;;;;;;;20.90;16.80;;;;;;;-0.15;100.00;98882.47;5054566;28;20212;-73
2023/01/22 07:56:40;;;;;;;25.40;17.23;;;;;;;-0.15;100.00;98878.09;5053387;28;20218;-73
2023/01/22 07:59:06;;;;;;;21.90;16.20;;;;;;;-0.16;100.00;98884.28;5053475;28;20219;-73
2023/01/22 08:01:33;;;;;;;23.33;16.73;;;;;;;-0.02;100.00;98883.91;5053270;28;20236;-73
2023/01/22 08:03:59;;;;;;;22.60;16.77;;;;;;;-0.04;100.00;98885.81;5053244;28;20212;-73
2023/01/22 08:06:25;;;;;;;23.50;17.57;;;;;;;-0.08;100.00;98883.63;5052939;28;20202;-73
2023/01/22 08:08:52;;;;;;;20.83;16.40;;;;;;;-0.08;100.00;98887.03;5053456;28;20668;-73
2023/01/22 08:11:18;;;;;;;22.63;16.83;;;;;;;0.22;100.00;98890.59;5053189;28;20229;-73
2023/01/22 08:13:45;;;;;;;22.80;16.73;;;;;;;0.10;100.00;98895.91;5053106;28;20242;-73
2023/01/22 08:16:11;;;;;;;21.50;16.10;;;;;;;0.10;100.00;98902.94;5053525;28;20201;-73
2023/01/22 08:18:38;;;;;;;22.97;16.93;;;;;;;0.20;100.00;98901.16;5053420;28;20216;-73
2023/01/22 08:21:04;;;;;;;23.43;16.37;;;;;;;0.08;100.00;98913.50;5053336;28;20299;-73
2023/01/22 08:23:30;;;;;;;20.20;16.43;;;;;;;0.18;100.00;98906.53;5053365;28;20209;-73
2023/01/22 08:26:02;;;;;;;21.87;16.47;;;;;;;0.38;100.00;98907.41;5053375;28;20201;-73
2023/01/22 08:28:28;;;;;;;21.37;15.57;;;;;;;0.23;100.00;98917.41;5053394;28;20202;-73
2023/01/22 08:30:59;;;;;;;19.77;14.97;;;;;;;0.16;100.00;98928.53;5053249;28;20212;-73
2023/01/22 08:33:26;;;;;;;22.57;16.23;;;;;;;0.32;100.00;98928.03;5053145;28;20216;-73
2023/01/22 08:35:53;;;;;;;21.27;17.07;;;;;;;0.30;100.00;98929.97;5053318;28;20202;-73
2023/01/22 08:38:19;;;;;;;22.27;16.27;;;;;;;0.26;100.00;98928.56;5053062;28;20232;-73
2023/01/22 08:40:50;;;;;;;22.20;16.83;;;;;;;0.32;100.00;98932.28;5053119;28;20205;-73
2023/01/22 08:43:16;;;;;;;22.40;16.73;;;;;;;0.26;100.00;98932.00;5052841;28;20210;-72
2023/01/22 08:45:44;;;;;;;22.50;16.87;;;;;;;0.18;100.00;98935.28;5054002;28;20212;-71
2023/01/22 08:48:10;;;;;;;22.77;15.93;;;;;;;0.41;100.00;98933.28;5053139;28;20207;-72
2023/01/22 08:50:37;;;;;;;23.13;17.00;;;;;;;0.37;100.00;98938.91;5053175;28;20205;-71
2023/01/22 08:53:03;;;;;;;24.27;17.60;;;;;;;0.51;100.00;98930.69;5053142;28;20231;-71
2023/01/22 08:55:29;;;;;;;22.17;17.00;;;;;;;0.55;100.00;98932.06;5053009;28;20573;-71
2023/01/22 08:57:57;;;;;;;20.53;15.60;;;;;;;0.45;100.00;98934.66;5054039;28;20221;-71
2023/01/22 09:00:24;;;;;;;20.00;15.53;;;;;;;0.49;100.00;98930.00;5057050;28;20208;-71
2023/01/22 09:02:51;;;;;;;21.73;15.90;;;;;;;0.54;100.00;98928.63;5056681;28;20229;-71
2023/01/22 09:05:17;;;;;;;18.90;15.07;;;;;;;0.57;100.00;98933.59;5056680;28;20205;-71
2023/01/22 09:07:43;;;;;;;23.87;16.17;;;;;;;0.47;100.00;98933.56;5056922;28;20201;-71
2023/01/22 09:10:11;;;;;;;24.43;17.23;;;;;;;0.49;100.00;98948.31;5056792;28;20206;-71
2023/01/22 09:12:39;;;;;;;22.23;15.93;;;;;;;0.59;100.00;98946.53;5056361;28;20229;-71
2023/01/22 09:15:07;;;;;;;23.20;17.47;;;;;;;0.47;100.00;98958.91;5056849;28;20209;-71
2023/01/22 09:17:34;;;;;;;25.23;17.63;;;;;;;0.50;100.00;98950.81;5056717;28;20225;-71
2023/01/22 09:20:00;;;;;;;23.80;17.13;;;;;;;0.46;100.00;98946.81;5056454;28;20575;-71
2023/01/22 09:22:26;;;;;;;24.37;16.97;;;;;;;0.58;100.00;98945.69;5056607;28;20585;-71
2023/01/22 09:24:53;;;;;;;21.87;16.77;;;;;;;0.53;100.00;98952.31;5057001;28;20205;-71
2023/01/22 09:27:20;;;;;;;22.37;16.97;;;;;;;0.38;100.00;98951.88;5056121;28;20687;-71
2023/01/22 09:29:46;;;;;;;22.47;15.83;;;;;;;0.36;100.00;98950.34;5057358;28;20216;-72
2023/01/22 09:32:12;;;;;;;22.67;15.40;;;;;;;0.46;100.00;98946.81;5056894;28;20229;-71
2023/01/22 09:34:39;;;;;;;19.40;14.37;;;;;;;0.74;100.00;98946.03;5056469;28;20227;-71
2023/01/22 09:37:06;;;;;;;22.13;15.43;;;;;;;0.87;100.00;98948.38;5056308;28;20225;-71
2023/01/22 09:39:33;;;;;;;20.80;15.00;;;;;;;0.69;100.00;98950.00;5055817;28;20205;-71
2023/01/22 09:42:02;;;;;;;19.50;14.00;;;;;;;0.77;100.00;98950.16;5056044;28;20229;-71
2023/01/22 09:44:42;;;;;;;21.00;15.33;;;;;;;0.87;100.00;98953.59;5056145;28;20205;-71
2023/01/22 09:47:16;;;;;;;17.87;14.10;;;;;;;1.10;100.00;98960.22;5056024;28;20194;-71
2023/01/22 09:50:06;;;;;;;23.90;15.60;;;;;;;1.26;100.00;98953.47;5056164;28;20194;-71
2023/01/22 09:52:36;;;;;;;22.40;15.27;;;;;;;1.26;100.00;98957.88;5055986;28;20235;-70
2023/01/22 09:55:03;;;;;;;19.37;13.90;;;;;;;1.57;100.00;98957.56;5056251;28;20215;-71
2023/01/22 09:57:29;;;;;;;20.87;14.00;;;;;;;1.00;100.00;98967.25;5056500;28;20232;-71
2023/01/22 09:59:57;;;;;;;21.07;14.33;;;;;;;1.12;100.00;98969.59;5055972;28;20205;-71
2023/01/22 10:02:29;;;;;;;24.43;15.13;;;;;;;0.94;100.00;98965.19;5055493;28;20707;-71
2023/01/22 10:05:18;;;;;;;17.77;13.83;;;;;;;1.35;100.00;98970.16;5055662;28;20189;-71
2023/01/22 10:07:53;;;;;;;16.80;13.50;;;;;;;1.55;100.00;98977.00;5055774;28;20182;-71
2023/01/22 10:10:22;;;;;;;16.77;13.37;;;;;;;1.43;100.00;98983.34;5054888;28;20189;-71
2023/01/22 10:12:56;;;;;;;15.83;12.53;;;;;;;1.70;100.00;98976.44;5055508;28;20240;-71
2023/01/22 10:15:23;;;;;;;16.60;12.83;;;;;;;1.44;100.00;98979.78;5055719;28;20201;-71
2023/01/22 10:17:52;;;;;;;14.80;11.07;;;;;;;1.52;100.00;98977.28;5056085;28;20271;-71
2023/01/22 10:20:19;;;;;;;17.10;12.47;;;;;;;1.47;100.00;98980.34;5054490;28;20208;-71
2023/01/22 10:22:47;;;;;;;15.80;12.20;;;;;;;1.42;100.00;98982.56;5055418;28;20321;-71
2023/01/22 10:25:15;;;;;;;15.77;12.60;;;;;;;1.31;100.00;98976.63;5055047;28;20657;-71
2023/01/22 10:27:45;;;;;;;16.03;11.97;;;;;;;1.28;100.00;98982.13;5055332;28;20215;-71
2023/01/22 10:30:14;;;;;;;16.40;12.50;;;;;;;1.28;100.00;98976.91;5054715;28;20205;-71
2023/01/22 10:32:41;;;;;;;15.83;12.30;;;;;;;1.25;100.00;98978.00;5055284;28;20222;-71
2023/01/22 10:35:10;;;;;;;17.40;13.23;;;;;;;1.13;100.00;98981.72;5055334;28;20304;-71
2023/01/22 10:37:48;;;;;;;17.37;13.00;;;;;;;1.12;100.00;98987.13;5055143;28;20225;-71
2023/01/22 10:40:36;;;;;;;18.17;13.90;;;;;;;1.21;100.00;98988.91;5055108;28;20200;-71
2023/01/22 10:43:13;;;;;;;17.47;13.77;;;;;;;1.12;100.00;98987.91;5055242;28;20408;-71
2023/01/22 10:45:58;;;;;;;19.23;14.33;;;;;;;1.10;100.00;98987.25;5055166;28;20196;-71
2023/01/22 10:48:25;;;;;;;19.57;14.47;;;;;;;1.20;100.00;98990.69;5054529;28;20656;-71
2023/01/22 10:51:16;;;;;;;16.93;14.10;;;;;;;1.17;100.00;98996.19;5054920;28;20201;-71
2023/01/22 10:53:54;;;;;;;16.27;13.13;;;;;;;1.19;100.00;98991.66;5054954;28;20197;-71
2023/01/22 10:56:40;;;;;;;18.67;13.87;;;;;;;1.18;100.00;98990.00;5054757;28;20209;-71
2023/01/22 10:59:21;;;;;;;17.83;14.00;;;;;;;1.16;100.00;98991.94;5054489;28;20217;-71
2023/01/22 11:01:49;;;;;;;16.53;13.57;;;;;;;1.16;100.00;98986.69;5054785;28;20228;-71
2023/01/22 11:04:26;;;;;;;18.67;14.77;;;;;;;1.12;100.00;98993.16;5054634;28;20277;-71
2023/01/22 11:07:23;;;;;;;21.20;15.73;;;;;;;1.18;100.00;98994.41;5054104;28;20633;-71
2023/01/22 11:10:10;;;;;;;17.70;13.53;;;;;;;1.23;100.00;98986.97;5054168;28;20185;-71
2023/01/22 11:12:44;;;;;;;18.23;13.17;;;;;;;1.54;100.00;98993.72;5036921;28;20233;-71
2023/01/22 11:15:13;;;;;;;17.20;13.00;;;;;;;1.59;100.00;98991.50;5054278;28;20284;-71
2023/01/22 11:17:48;;;;;;;15.37;13.03;;;;;;;1.49;100.00;98982.81;5054112;28;20232;-71
2023/01/22 11:20:26;;;;;;;17.33;13.20;;;;;;;1.84;100.00;98996.13;5053267;28;20195;-71
2023/01/22 11:23:14;;;;;;;17.63;13.30;;;;;;;1.68;100.00;98994.13;5053245;28;20252;-71
2023/01/22 11:26:14;;;;;;;17.07;13.20;;;;;;;1.64;100.00;98987.50;5052830;28;20216;-71